sensor_id;sensor_type;location;lat;lon;timestamp;temperature;humidity
23803;DHT22;12082;51.786;6.018;2023-02-23T07:16:05;7.30;99.90
23803;DHT22;12082;51.786;6.018;2023-02-23T07:18:31;7.40;99.90
23803;DHT22;12082;51.786;6.018;2023-02-23T07:20:59;7.30;99.90
23803;DHT22;12082;51.786;6.018;2023-02-23T07:33:14;7.30;99.90
23803;DHT22;12082;51.786;6.018;2023-02-23T07:35:40;7.80;99.90
23803;DHT22;12082;51.786;6.018;2023-02-23T07:38:06;7.30;99.90
23803;DHT22;12082;51.786;6.018;2023-02-23T07:40:32;7.30;99.90
23803;DHT22;12082;51.786;6.018;2023-02-23T07:42:57;7.60;99.90
23803;DHT22;12082;51.786;6.018;2023-02-23T07:45:23;7.50;99.90
23803;DHT22;12082;51.786;6.018;2023-02-23T07:47:49;7.30;99.90
23803;DHT22;12082;51.786;6.018;2023-02-23T07:50:15;7.30;99.90
23803;DHT22;12082;51.786;6.018;2023-02-23T07:52:41;7.30;99.90
23803;DHT22;12082;51.786;6.018;2023-02-23T07:55:08;7.40;99.90
23803;DHT22;12082;51.786;6.018;2023-02-23T07:57:34;7.40;99.90
23803;DHT22;12082;51.786;6.018;2023-02-23T08:00:00;7.40;99.90
23803;DHT22;12082;51.786;6.018;2023-02-23T08:02:26;7.30;99.90
23803;DHT22;12082;51.786;6.018;2023-02-23T08:04:56;7.40;99.90
23803;DHT22;12082;51.786;6.018;2023-02-23T08:07:22;7.50;99.90
23803;DHT22;12082;51.786;6.018;2023-02-23T08:09:50;7.40;99.90
23803;DHT22;12082;51.786;6.018;2023-02-23T08:12:16;7.50;99.90
23803;DHT22;12082;51.786;6.018;2023-02-23T08:14:42;7.40;99.90
23803;DHT22;12082;51.786;6.018;2023-02-23T08:17:08;7.40;99.90
23803;DHT22;12082;51.786;6.018;2023-02-23T08:19:34;7.40;99.90
23803;DHT22;12082;51.786;6.018;2023-02-23T08:22:00;7.30;99.90
23803;DHT22;12082;51.786;6.018;2023-02-23T08:24:26;7.40;99.90
23803;DHT22;12082;51.786;6.018;2023-02-23T08:26:53;7.40;99.90
23803;DHT22;12082;51.786;6.018;2023-02-23T08:29:19;7.40;99.90
23803;DHT22;12082;51.786;6.018;2023-02-23T08:31:46;7.50;99.90
23803;DHT22;12082;51.786;6.018;2023-02-23T08:34:12;7.50;99.90
23803;DHT22;12082;51.786;6.018;2023-02-23T08:36:37;7.40;99.90
23803;DHT22;12082;51.786;6.018;2023-02-23T08:39:04;7.50;99.90
23803;DHT22;12082;51.786;6.018;2023-02-23T08:41:32;7.50;99.90
23803;DHT22;12082;51.786;6.018;2023-02-23T08:43:58;7.50;99.90
23803;DHT22;12082;51.786;6.018;2023-02-23T08:46:23;7.50;99.90
23803;DHT22;12082;51.786;6.018;2023-02-23T08:48:49;7.50;99.90
23803;DHT22;12082;51.786;6.018;2023-02-23T08:51:15;7.60;99.90
23803;DHT22;12082;51.786;6.018;2023-02-23T08:53:40;8.20;99.90
23803;DHT22;12082;51.786;6.018;2023-02-23T08:56:07;7.80;99.90
23803;DHT22;12082;51.786;6.018;2023-02-23T08:58:34;7.80;99.90
23803;DHT22;12082;51.786;6.018;2023-02-23T09:01:00;7.80;99.90
23803;DHT22;12082;51.786;6.018;2023-02-23T09:03:27;7.70;99.90
23803;DHT22;12082;51.786;6.018;2023-02-23T09:10:51;7.90;99.90
23803;DHT22;12082;51.786;6.018;2023-02-23T09:13:17;8.00;99.90
23803;DHT22;12082;51.786;6.018;2023-02-23T09:15:43;7.90;99.90
23803;DHT22;12082;51.786;6.018;2023-02-23T09:18:11;7.90;99.90
23803;DHT22;12082;51.786;6.018;2023-02-23T09:20:42;8.10;99.90
23803;DHT22;12082;51.786;6.018;2023-02-23T09:23:08;8.00;99.90
23803;DHT22;12082;51.786;6.018;2023-02-23T09:25:39;8.00;99.90
23803;DHT22;12082;51.786;6.018;2023-02-23T09:28:12;7.90;99.90
23803;DHT22;12082;51.786;6.018;2023-02-23T09:30:39;8.00;99.90
23803;DHT22;12082;51.786;6.018;2023-02-23T09:33:05;8.10;99.90
23803;DHT22;12082;51.786;6.018;2023-02-23T09:35:32;8.00;99.90
23803;DHT22;12082;51.786;6.018;2023-02-23T09:37:58;7.70;99.90
23803;DHT22;12082;51.786;6.018;2023-02-23T09:40:27;8.00;99.90
23803;DHT22;12082;51.786;6.018;2023-02-23T09:48:21;8.60;99.90
23803;DHT22;12082;51.786;6.018;2023-02-23T09:51:07;8.10;99.90
23803;DHT22;12082;51.786;6.018;2023-02-23T09:53:52;8.10;99.90
23803;DHT22;12082;51.786;6.018;2023-02-23T09:56:39;8.10;99.90
23803;DHT22;12082;51.786;6.018;2023-02-23T09:59:13;8.10;99.90
23803;DHT22;12082;51.786;6.018;2023-02-23T10:01:49;8.10;99.90
23803;DHT22;12082;51.786;6.018;2023-02-23T10:15:26;8.10;99.90
23803;DHT22;12082;51.786;6.018;2023-02-23T10:18:27;8.10;99.90
23803;DHT22;12082;51.786;6.018;2023-02-23T10:21:06;8.10;99.90
23803;DHT22;12082;51.786;6.018;2023-02-23T10:23:56;8.10;99.90
23803;DHT22;12082;51.786;6.018;2023-02-23T10:26:41;8.10;99.90
23803;DHT22;12082;51.786;6.018;2023-02-23T10:29:21;8.00;99.90
23803;DHT22;12082;51.786;6.018;2023-02-23T10:31:50;8.10;99.90
23803;DHT22;12082;51.786;6.018;2023-02-23T10:34:18;8.10;99.90
23803;DHT22;12082;51.786;6.018;2023-02-23T10:36:58;8.40;99.90
23803;DHT22;12082;51.786;6.018;2023-02-23T10:39:25;8.10;99.90
23803;DHT22;12082;51.786;6.018;2023-02-23T10:41:51;8.10;99.90
23803;DHT22;12082;51.786;6.018;2023-02-23T10:44:24;8.10;99.90
23803;DHT22;12082;51.786;6.018;2023-02-23T10:46:55;8.30;99.90
23803;DHT22;12082;51.786;6.018;2023-02-23T10:49:26;8.10;99.90
23803;DHT22;12082;51.786;6.018;2023-02-23T10:51:54;8.10;99.90
23803;DHT22;12082;51.786;6.018;2023-02-23T10:56:59;8.10;99.90
23803;DHT22;12082;51.786;6.018;2023-02-23T10:59:25;8.20;99.90
23803;DHT22;12082;51.786;6.018;2023-02-23T11:01:51;8.20;99.90
23803;DHT22;12082;51.786;6.018;2023-02-23T11:04:26;8.00;99.90
23803;DHT22;12082;51.786;6.018;2023-02-23T11:07:15;8.30;99.90
23803;DHT22;12082;51.786;6.018;2023-02-23T11:09:42;8.20;99.90
23803;DHT22;12082;51.786;6.018;2023-02-23T11:12:20;8.30;99.90
23803;DHT22;12082;51.786;6.018;2023-02-23T11:14:56;8.40;99.90
23803;DHT22;12082;51.786;6.018;2023-02-23T11:17:29;8.40;99.90
23803;DHT22;12082;51.786;6.018;2023-02-23T11:22:31;8.30;99.90
23803;DHT22;12082;51.786;6.018;2023-02-23T11:24:59;8.90;99.90
23803;DHT22;12082;51.786;6.018;2023-02-23T11:27:26;8.20;99.90
23803;DHT22;12082;51.786;6.018;2023-02-23T11:29:55;8.20;99.90
23803;DHT22;12082;51.786;6.018;2023-02-23T11:32:27;8.20;99.90
23803;DHT22;12082;51.786;6.018;2023-02-23T11:37:47;8.30;99.90
23803;DHT22;12082;51.786;6.018;2023-02-23T11:40:25;8.10;99.90
23803;DHT22;12082;51.786;6.018;2023-02-23T11:42:56;8.20;99.90
23803;DHT22;12082;51.786;6.018;2023-02-23T11:45:25;8.30;99.90
23803;DHT22;12082;51.786;6.018;2023-02-23T11:47:54;8.20;99.90
23803;DHT22;12082;51.786;6.018;2023-02-23T11:50:30;8.40;99.90
23803;DHT22;12082;51.786;6.018;2023-02-23T11:53:12;8.20;99.90
23803;DHT22;12082;51.786;6.018;2023-02-23T11:55:39;8.30;99.90
23803;DHT22;12082;51.786;6.018;2023-02-23T12:00:59;8.10;99.90
23803;DHT22;12082;51.786;6.018;2023-02-23T12:03:29;7.50;99.90
23803;DHT22;12082;51.786;6.018;2023-02-23T12:05:57;8.60;99.90
23803;DHT22;12082;51.786;6.018;2023-02-23T12:10:57;8.30;99.90
23803;DHT22;12082;51.786;6.018;2023-02-23T12:16:02;8.30;99.90
23803;DHT22;12082;51.786;6.018;2023-02-23T12:21:02;8.50;99.90
23803;DHT22;12082;51.786;6.018;2023-02-23T12:23:30;9.40;99.90
23803;DHT22;12082;51.786;6.018;2023-02-23T12:26:08;8.50;99.90
23803;DHT22;12082;51.786;6.018;2023-02-23T12:28:59;8.80;99.90
23803;DHT22;12082;51.786;6.018;2023-02-23T12:34:14;8.80;99.90
23803;DHT22;12082;51.786;6.018;2023-02-23T12:36:45;8.80;99.90
23803;DHT22;12082;51.786;6.018;2023-02-23T12:39:34;8.80;99.90
23803;DHT22;12082;51.786;6.018;2023-02-23T12:42:14;9.30;99.90
23803;DHT22;12082;51.786;6.018;2023-02-23T12:44:51;8.90;99.90
23803;DHT22;12082;51.786;6.018;2023-02-23T12:47:43;8.90;99.90
23803;DHT22;12082;51.786;6.018;2023-02-23T12:50:25;9.40;99.90
23803;DHT22;12082;51.786;6.018;2023-02-23T12:52:56;9.00;99.90
23803;DHT22;12082;51.786;6.018;2023-02-23T13:01:07;8.90;99.90
23803;DHT22;12082;51.786;6.018;2023-02-23T13:09:20;8.80;99.90
23803;DHT22;12082;51.786;6.018;2023-02-23T13:14:57;8.70;99.90
23803;DHT22;12082;51.786;6.018;2023-02-23T13:17:50;8.70;99.90
23803;DHT22;12082;51.786;6.018;2023-02-23T13:25:48;8.70;99.90
23803;DHT22;12082;51.786;6.018;2023-02-23T13:28:35;8.70;99.90
23803;DHT22;12082;51.786;6.018;2023-02-23T13:31:02;8.70;99.90
23803;DHT22;12082;51.786;6.018;2023-02-23T13:33:29;8.70;99.90
23803;DHT22;12082;51.786;6.018;2023-02-23T13:36:00;8.70;99.90
23803;DHT22;12082;51.786;6.018;2023-02-23T13:38:40;9.50;99.90
23803;DHT22;12082;51.786;6.018;2023-02-23T13:41:30;8.70;99.90
23803;DHT22;12082;51.786;6.018;2023-02-23T13:47:04;8.80;99.90
23803;DHT22;12082;51.786;6.018;2023-02-23T13:52:38;8.80;99.90
23803;DHT22;12082;51.786;6.018;2023-02-23T13:58:13;8.80;99.90
23803;DHT22;12082;51.786;6.018;2023-02-23T14:00:39;8.80;99.90
23803;DHT22;12082;51.786;6.018;2023-02-23T14:03:07;9.20;99.90
23803;DHT22;12082;51.786;6.018;2023-02-23T14:05:43;8.70;99.90
23803;DHT22;12082;51.786;6.018;2023-02-23T14:08:41;8.70;99.90
23803;DHT22;12082;51.786;6.018;2023-02-23T14:11:06;8.70;99.90
23803;DHT22;12082;51.786;6.018;2023-02-23T14:13:34;8.60;99.90
23803;DHT22;12082;51.786;6.018;2023-02-23T14:24:14;8.90;99.90
23803;DHT22;12082;51.786;6.018;2023-02-23T14:29:41;8.60;99.90
23803;DHT22;12082;51.786;6.018;2023-02-23T14:39:54;8.40;99.90
23803;DHT22;12082;51.786;6.018;2023-02-23T14:55:15;8.40;99.90
23803;DHT22;12082;51.786;6.018;2023-02-23T17:56:55;7.90;99.90
23803;DHT22;12082;51.786;6.018;2023-02-23T18:11:38;7.90;99.90
23803;DHT22;12082;51.786;6.018;2023-02-23T18:46:28;6.90;99.90
23803;DHT22;12082;51.786;6.018;2023-02-23T18:48:54;6.90;99.90
23803;DHT22;12082;51.786;6.018;2023-02-23T18:51:21;6.80;99.90
23803;DHT22;12082;51.786;6.018;2023-02-23T18:53:48;6.80;99.90
23803;DHT22;12082;51.786;6.018;2023-02-23T18:56:16;6.70;99.90
23803;DHT22;12082;51.786;6.018;2023-02-23T19:01:18;6.60;99.90
23803;DHT22;12082;51.786;6.018;2023-02-23T19:03:49;6.60;99.90
23803;DHT22;12082;51.786;6.018;2023-02-23T19:06:15;6.50;99.90
23803;DHT22;12082;51.786;6.018;2023-02-23T19:08:42;6.40;99.90
23803;DHT22;12082;51.786;6.018;2023-02-23T19:11:09;6.20;99.90
23803;DHT22;12082;51.786;6.018;2023-02-23T19:13:35;6.40;99.90
23803;DHT22;12082;51.786;6.018;2023-02-23T19:16:06;6.00;99.90
23803;DHT22;12082;51.786;6.018;2023-02-23T19:18:32;6.00;99.90
23803;DHT22;12082;51.786;6.018;2023-02-23T19:21:00;5.90;99.90
23803;DHT22;12082;51.786;6.018;2023-02-23T19:23:26;5.80;99.90
23803;DHT22;12082;51.786;6.018;2023-02-23T19:25:52;5.70;99.90
23803;DHT22;12082;51.786;6.018;2023-02-23T19:28:18;5.80;99.90
23803;DHT22;12082;51.786;6.018;2023-02-23T19:30:44;5.70;99.90
23803;DHT22;12082;51.786;6.018;2023-02-23T19:33:15;5.70;99.90
23803;DHT22;12082;51.786;6.018;2023-02-23T19:35:42;5.70;99.90
23803;DHT22;12082;51.786;6.018;2023-02-23T19:38:07;5.90;99.90
23803;DHT22;12082;51.786;6.018;2023-02-23T19:40:38;5.70;99.90
23803;DHT22;12082;51.786;6.018;2023-02-23T19:43:09;5.60;99.90
23803;DHT22;12082;51.786;6.018;2023-02-23T19:45:39;5.60;99.90
23803;DHT22;12082;51.786;6.018;2023-02-23T19:48:06;5.60;99.90
23803;DHT22;12082;51.786;6.018;2023-02-23T19:50:32;5.70;99.90
23803;DHT22;12082;51.786;6.018;2023-02-23T19:53:00;5.60;99.90
23803;DHT22;12082;51.786;6.018;2023-02-23T19:55:25;5.60;99.90
23803;DHT22;12082;51.786;6.018;2023-02-23T19:57:51;5.60;99.90
23803;DHT22;12082;51.786;6.018;2023-02-23T20:00:18;5.50;99.90
23803;DHT22;12082;51.786;6.018;2023-02-23T20:02:43;5.50;99.90
23803;DHT22;12082;51.786;6.018;2023-02-23T20:05:14;5.40;99.90
23803;DHT22;12082;51.786;6.018;2023-02-23T20:07:40;5.40;99.90
23803;DHT22;12082;51.786;6.018;2023-02-23T20:10:07;5.30;99.90
23803;DHT22;12082;51.786;6.018;2023-02-23T20:12:35;5.30;99.90
23803;DHT22;12082;51.786;6.018;2023-02-23T20:15:01;5.10;99.90
23803;DHT22;12082;51.786;6.018;2023-02-23T20:17:27;5.00;99.90
23803;DHT22;12082;51.786;6.018;2023-02-23T20:19:52;4.90;99.90
23803;DHT22;12082;51.786;6.018;2023-02-23T20:22:18;4.70;99.90
23803;DHT22;12082;51.786;6.018;2023-02-23T20:24:44;4.60;99.90
23803;DHT22;12082;51.786;6.018;2023-02-23T20:27:10;4.50;99.90
23803;DHT22;12082;51.786;6.018;2023-02-23T20:29:35;4.50;99.90
23803;DHT22;12082;51.786;6.018;2023-02-23T20:32:02;4.30;99.90
23803;DHT22;12082;51.786;6.018;2023-02-23T20:34:28;4.20;99.90
23803;DHT22;12082;51.786;6.018;2023-02-23T20:36:54;4.10;99.90
23803;DHT22;12082;51.786;6.018;2023-02-23T20:39:24;4.00;99.90
23803;DHT22;12082;51.786;6.018;2023-02-23T20:41:51;4.10;99.90
23803;DHT22;12082;51.786;6.018;2023-02-23T20:44:22;4.10;99.90
23803;DHT22;12082;51.786;6.018;2023-02-23T20:46:48;4.20;99.90
23803;DHT22;12082;51.786;6.018;2023-02-23T20:49:14;4.10;99.90
23803;DHT22;12082;51.786;6.018;2023-02-23T20:51:44;4.10;99.90
23803;DHT22;12082;51.786;6.018;2023-02-23T20:54:11;4.00;99.90
23803;DHT22;12082;51.786;6.018;2023-02-23T20:56:38;4.00;99.90
23803;DHT22;12082;51.786;6.018;2023-02-23T20:59:05;3.80;99.90
23803;DHT22;12082;51.786;6.018;2023-02-23T21:01:31;3.90;99.90
23803;DHT22;12082;51.786;6.018;2023-02-23T21:03:58;3.00;99.90
23803;DHT22;12082;51.786;6.018;2023-02-23T21:06:27;3.70;99.90
23803;DHT22;12082;51.786;6.018;2023-02-23T21:08:54;3.80;99.90
23803;DHT22;12082;51.786;6.018;2023-02-23T21:11:21;3.70;99.90
23803;DHT22;12082;51.786;6.018;2023-02-23T21:13:50;3.60;99.90
23803;DHT22;12082;51.786;6.018;2023-02-23T21:16:18;3.60;99.90
23803;DHT22;12082;51.786;6.018;2023-02-23T21:18:44;3.60;99.90
23803;DHT22;12082;51.786;6.018;2023-02-23T21:21:10;3.50;99.90
23803;DHT22;12082;51.786;6.018;2023-02-23T21:23:40;3.30;99.90
23803;DHT22;12082;51.786;6.018;2023-02-23T21:26:08;3.40;99.90
23803;DHT22;12082;51.786;6.018;2023-02-23T21:28:44;3.40;99.90
23803;DHT22;12082;51.786;6.018;2023-02-23T21:31:11;3.30;99.90
23803;DHT22;12082;51.786;6.018;2023-02-23T21:33:41;2.60;99.90
23803;DHT22;12082;51.786;6.018;2023-02-23T21:36:08;3.30;99.90
23803;DHT22;12082;51.786;6.018;2023-02-23T21:38:39;3.30;99.90
23803;DHT22;12082;51.786;6.018;2023-02-23T21:41:05;3.20;99.90
23803;DHT22;12082;51.786;6.018;2023-02-23T21:43:33;3.00;99.90
23803;DHT22;12082;51.786;6.018;2023-02-23T21:45:59;3.20;99.90
23803;DHT22;12082;51.786;6.018;2023-02-23T21:48:25;3.10;99.90
23803;DHT22;12082;51.786;6.018;2023-02-23T21:50:51;3.00;99.90
23803;DHT22;12082;51.786;6.018;2023-02-23T21:53:16;3.00;99.90
23803;DHT22;12082;51.786;6.018;2023-02-23T21:55:42;2.90;99.90
23803;DHT22;12082;51.786;6.018;2023-02-23T21:58:07;2.90;99.90
23803;DHT22;12082;51.786;6.018;2023-02-23T22:00:34;2.90;99.90
23803;DHT22;12082;51.786;6.018;2023-02-23T22:03:00;2.80;99.90
23803;DHT22;12082;51.786;6.018;2023-02-23T22:05:26;2.80;99.90
23803;DHT22;12082;51.786;6.018;2023-02-23T22:07:54;2.70;99.90
23803;DHT22;12082;51.786;6.018;2023-02-23T22:10:22;2.50;99.90
23803;DHT22;12082;51.786;6.018;2023-02-23T22:12:49;2.80;99.90
23803;DHT22;12082;51.786;6.018;2023-02-23T22:15:20;2.90;99.90
23803;DHT22;12082;51.786;6.018;2023-02-23T22:17:49;3.00;99.90
23803;DHT22;12082;51.786;6.018;2023-02-23T22:20:15;3.10;99.90
23803;DHT22;12082;51.786;6.018;2023-02-23T22:22:44;3.10;99.90
23803;DHT22;12082;51.786;6.018;2023-02-23T22:25:09;3.60;99.90
23803;DHT22;12082;51.786;6.018;2023-02-23T22:27:35;3.00;99.90
23803;DHT22;12082;51.786;6.018;2023-02-23T22:30:01;2.90;99.90
23803;DHT22;12082;51.786;6.018;2023-02-23T22:32:29;2.90;99.90
23803;DHT22;12082;51.786;6.018;2023-02-23T22:34:58;2.80;99.90
23803;DHT22;12082;51.786;6.018;2023-02-23T22:37:24;2.70;99.90
23803;DHT22;12082;51.786;6.018;2023-02-23T22:39:57;2.60;99.90
23803;DHT22;12082;51.786;6.018;2023-02-23T22:42:25;2.50;99.90
23803;DHT22;12082;51.786;6.018;2023-02-23T22:44:54;2.50;99.90
23803;DHT22;12082;51.786;6.018;2023-02-23T22:47:19;2.30;99.90
23803;DHT22;12082;51.786;6.018;2023-02-23T22:49:45;2.30;99.90
23803;DHT22;12082;51.786;6.018;2023-02-23T22:52:11;2.20;99.90
23803;DHT22;12082;51.786;6.018;2023-02-23T22:54:37;2.10;99.90
23803;DHT22;12082;51.786;6.018;2023-02-23T22:57:05;2.20;99.90
23803;DHT22;12082;51.786;6.018;2023-02-23T22:59:30;2.20;99.90
23803;DHT22;12082;51.786;6.018;2023-02-23T23:01:56;2.10;99.90
23803;DHT22;12082;51.786;6.018;2023-02-23T23:04:22;2.20;99.90
23803;DHT22;12082;51.786;6.018;2023-02-23T23:06:48;2.20;99.90
23803;DHT22;12082;51.786;6.018;2023-02-23T23:09:14;2.20;99.90
23803;DHT22;12082;51.786;6.018;2023-02-23T23:11:42;2.10;99.90
23803;DHT22;12082;51.786;6.018;2023-02-23T23:14:09;2.00;99.90
23803;DHT22;12082;51.786;6.018;2023-02-23T23:16:37;2.00;99.90
23803;DHT22;12082;51.786;6.018;2023-02-23T23:19:12;1.90;99.90
23803;DHT22;12082;51.786;6.018;2023-02-23T23:21:41;1.80;99.90
23803;DHT22;12082;51.786;6.018;2023-02-23T23:24:08;1.70;99.90
23803;DHT22;12082;51.786;6.018;2023-02-23T23:26:36;1.70;99.90
23803;DHT22;12082;51.786;6.018;2023-02-23T23:29:06;1.70;99.90
23803;DHT22;12082;51.786;6.018;2023-02-23T23:31:34;1.60;99.90
23803;DHT22;12082;51.786;6.018;2023-02-23T23:34:03;1.70;99.90
23803;DHT22;12082;51.786;6.018;2023-02-23T23:36:32;1.60;99.90
23803;DHT22;12082;51.786;6.018;2023-02-23T23:38:59;1.70;99.90
23803;DHT22;12082;51.786;6.018;2023-02-23T23:41:26;1.80;99.90
23803;DHT22;12082;51.786;6.018;2023-02-23T23:43:56;1.80;99.90
23803;DHT22;12082;51.786;6.018;2023-02-23T23:46:24;1.90;99.90
23803;DHT22;12082;51.786;6.018;2023-02-23T23:48:52;1.80;99.90
23803;DHT22;12082;51.786;6.018;2023-02-23T23:51:20;1.70;99.90
23803;DHT22;12082;51.786;6.018;2023-02-23T23:53:49;1.70;99.90
23803;DHT22;12082;51.786;6.018;2023-02-23T23:56:16;1.90;99.90
23803;DHT22;12082;51.786;6.018;2023-02-23T23:58:48;1.90;99.90
